< < Back
Terminal Aerodrome Forecast


Current Version              Previous Versions:   1  2  3  4  5  6  7  8  9  

Terminal Aerodrome Forecast

928
FTUS42 KILM 242326
TAFILM
TAF
KILM 242326Z 2500/2524 VRB03KT P6SM FEW250
      TEMPO 2508/2512 3SM BR
     FM251200 04008KT P6SM FEW025 SCT050
     FM251800 07011KT P6SM VCSH BKN050=

Latest METAR

192
SAUS70 KWBC 250200 RRK
MTRILM
METAR KILM 250153Z 00000KT 10SM CLR 23/22 A3005 RMK AO2 SLP175
T02280217


USA.gov is the U.S. government's official web portal to all federal, state and local government web resources and services.